createdAt,value
2022-11-06T00:04:21.386Z,6.20
2022-11-06T00:09:28.372Z,6.20
2022-11-06T00:14:35.157Z,6.20
2022-11-06T00:19:41.933Z,6.20
2022-11-06T00:24:50.312Z,6.20
2022-11-06T00:29:57.221Z,6.20
2022-11-06T00:35:03.919Z,6.10
2022-11-06T00:40:12.541Z,6.00
2022-11-06T00:45:19.358Z,5.90
2022-11-06T00:50:27.257Z,5.80
2022-11-06T00:55:34.284Z,5.90
2022-11-06T01:00:41.145Z,5.70
2022-11-06T01:05:48.150Z,5.70
2022-11-06T01:10:54.919Z,5.70
2022-11-06T01:16:02.103Z,5.80
2022-11-06T01:21:12.394Z,5.80
2022-11-06T01:26:36.861Z,5.70
2022-11-06T01:31:31.876Z,5.80
2022-11-06T01:36:38.837Z,5.70
2022-11-06T01:41:50.391Z,5.60
2022-11-06T01:46:57.919Z,5.70
2022-11-06T01:52:09.062Z,5.60
2022-11-06T01:57:16.050Z,5.60
2022-11-06T02:02:23.512Z,5.60
2022-11-06T02:07:30.609Z,5.80
2022-11-06T02:12:47.458Z,5.80
2022-11-06T02:18:07.571Z,5.80
2022-11-06T02:23:42.509Z,5.70
2022-11-06T02:28:51.061Z,5.80
2022-11-06T02:34:01.245Z,5.80
2022-11-06T02:39:11.652Z,5.90
2022-11-06T02:44:21.954Z,5.80
2022-11-06T02:49:48.004Z,5.90
2022-11-06T02:54:59.179Z,5.90
2022-11-06T03:00:12.346Z,5.90
2022-11-06T03:05:37.575Z,6.00
2022-11-06T03:11:09.578Z,6.00
2022-11-06T03:16:26.714Z,5.90
2022-11-06T03:21:37.902Z,5.80
2022-11-06T03:26:53.536Z,5.80
2022-11-06T03:32:07.451Z,5.80
2022-11-06T03:37:15.964Z,5.80
2022-11-06T03:42:30.747Z,5.70
2022-11-06T03:47:42.129Z,5.70
2022-11-06T03:52:58.957Z,5.70
2022-11-06T03:58:21.694Z,5.70
2022-11-06T04:03:35.533Z,5.60
2022-11-06T04:09:00.826Z,5.60
2022-11-06T04:14:08.905Z,5.60
2022-11-06T04:19:21.898Z,5.60
2022-11-06T04:25:07.941Z,5.70
2022-11-06T04:30:18.261Z,5.70
2022-11-06T04:35:40.966Z,5.70
2022-11-06T04:41:13.100Z,5.70
2022-11-06T04:46:26.993Z,5.70
2022-11-06T04:51:34.753Z,5.80
2022-11-06T04:56:45.764Z,5.60
2022-11-06T05:01:49.456Z,5.50
2022-11-06T05:06:56.247Z,5.50
2022-11-06T05:12:02.942Z,5.50
2022-11-06T05:17:33.916Z,5.40
2022-11-06T05:23:01.119Z,5.50
2022-11-06T05:28:09.982Z,5.40
2022-11-06T05:33:16.808Z,5.40
2022-11-06T05:51:06.889Z,5.30
2022-11-06T05:56:13.777Z,5.20
2022-11-06T06:01:35.652Z,5.10
2022-11-06T06:22:26.837Z,5.20
2022-11-06T06:27:35.788Z,5.20
2022-11-06T06:32:42.445Z,5.10
2022-11-06T06:37:58.252Z,5.20
2022-11-06T06:43:04.870Z,5.20
2022-11-06T06:48:11.936Z,5.30
2022-11-06T06:53:18.963Z,5.30
2022-11-06T06:58:26.024Z,5.40
2022-11-06T07:03:34.228Z,5.40
2022-11-06T07:08:41.037Z,5.40
2022-11-06T07:13:47.725Z,5.50
2022-11-06T07:18:54.770Z,5.60
2022-11-06T07:24:02.408Z,5.60
2022-11-06T07:29:11.098Z,5.60
2022-11-06T07:34:17.963Z,5.60
2022-11-06T07:39:24.990Z,5.70
2022-11-06T07:44:32.110Z,5.70
2022-11-06T07:49:38.997Z,5.90
2022-11-06T07:54:46.794Z,5.90
2022-11-06T07:59:53.594Z,5.90
2022-11-06T08:05:00.357Z,6.00
2022-11-06T08:10:08.329Z,6.10
2022-11-06T08:15:15.079Z,6.10
2022-11-06T08:20:21.785Z,6.20
2022-11-06T08:25:32.423Z,6.30
2022-11-06T08:30:40.153Z,6.30
2022-11-06T08:35:46.817Z,6.40
2022-11-06T08:40:54.068Z,6.40
2022-11-06T08:46:02.928Z,6.50
2022-11-06T08:51:11.583Z,6.60
2022-11-06T08:56:21.172Z,6.80
2022-11-06T09:01:28.331Z,6.70
2022-11-06T09:06:37.165Z,6.80
2022-11-06T09:11:43.807Z,6.90
2022-11-06T09:16:50.662Z,6.90
2022-11-06T09:21:57.379Z,7.00
2022-11-06T09:27:04.005Z,7.10
2022-11-06T09:32:11.118Z,7.20
2022-11-06T09:37:19.049Z,7.30
2022-11-06T09:42:55.998Z,7.40
2022-11-06T09:48:07.393Z,7.60
2022-11-06T09:53:27.692Z,7.50
2022-11-06T09:58:45.374Z,7.60
2022-11-06T10:04:07.332Z,7.80
2022-11-06T10:09:17.813Z,7.60
2022-11-06T10:14:53.507Z,7.90
2022-11-06T10:20:26.534Z,8.10
2022-11-06T10:25:45.927Z,8.20
2022-11-06T10:30:56.929Z,8.10
2022-11-06T10:36:17.163Z,8.20
2022-11-06T10:41:36.180Z,8.40
2022-11-06T10:46:51.955Z,8.60
2022-11-06T10:52:21.806Z,8.80
2022-11-06T10:57:36.044Z,8.90
2022-11-06T11:02:56.329Z,8.80
2022-11-06T11:08:03.003Z,8.90
2022-11-06T11:13:14.135Z,9.10
2022-11-06T11:18:29.543Z,8.90
2022-11-06T11:23:36.323Z,9.10
2022-11-06T11:28:44.852Z,9.20
2022-11-06T11:33:56.679Z,9.50
2022-11-06T11:39:04.026Z,9.10
2022-11-06T11:44:18.741Z,9.20
2022-11-06T11:49:35.708Z,9.20
2022-11-06T11:54:43.199Z,9.20
2022-11-06T11:59:57.644Z,9.40
2022-11-06T12:05:07.930Z,9.40
2022-11-06T12:10:39.063Z,9.30
2022-11-06T12:16:09.402Z,9.40
2022-11-06T12:21:29.793Z,9.30
2022-11-06T12:26:50.890Z,9.60
2022-11-06T12:32:35.498Z,9.70
2022-11-06T12:38:18.134Z,9.50
2022-11-06T12:43:47.420Z,9.70
2022-11-06T12:49:26.831Z,9.60
2022-11-06T12:55:19.059Z,9.70
2022-11-06T13:00:31.878Z,9.60
2022-11-06T13:05:55.276Z,9.50
2022-11-06T13:11:33.343Z,9.70
2022-11-06T13:17:17.539Z,9.30
2022-11-06T13:22:34.334Z,9.50
2022-11-06T13:27:57.830Z,9.70
2022-11-06T13:33:24.178Z,9.40
2022-11-06T13:38:44.114Z,9.40
2022-11-06T13:44:07.000Z,9.40
2022-11-06T13:49:43.753Z,9.20
2022-11-06T13:55:19.861Z,9.40
2022-11-06T14:01:10.230Z,9.30
2022-11-06T14:06:26.374Z,9.10
2022-11-06T14:11:37.654Z,9.20
2022-11-06T14:16:48.645Z,9.00
2022-11-06T14:22:00.335Z,9.10
2022-11-06T14:27:14.307Z,9.10
2022-11-06T14:32:34.866Z,8.80
2022-11-06T14:37:51.691Z,8.80
2022-11-06T14:42:59.041Z,8.70
2022-11-06T14:48:07.123Z,8.90
2022-11-06T14:53:30.704Z,8.90
2022-11-06T14:58:43.682Z,8.60
2022-11-06T15:04:00.729Z,8.50
2022-11-06T15:09:14.841Z,8.30
2022-11-06T15:14:23.704Z,8.30
2022-11-06T15:19:34.626Z,8.10
2022-11-06T15:24:56.933Z,7.90
2022-11-06T15:30:06.955Z,7.80
2022-11-06T15:35:28.293Z,7.80
2022-11-06T15:40:38.445Z,7.60
2022-11-06T15:45:45.298Z,7.40
2022-11-06T15:50:53.180Z,7.30
2022-11-06T15:56:11.791Z,7.20
2022-11-06T16:01:23.065Z,7.20
2022-11-06T16:06:31.682Z,6.90
2022-11-06T16:11:39.584Z,6.90
2022-11-06T16:16:51.174Z,6.70
2022-11-06T16:22:14.086Z,6.80
2022-11-06T16:27:25.257Z,6.70
2022-11-06T16:32:42.602Z,6.70
2022-11-06T16:37:50.362Z,6.60
2022-11-06T16:43:07.263Z,6.60
2022-11-06T16:48:22.366Z,6.60
2022-11-06T16:53:37.880Z,6.50
2022-11-06T16:58:59.414Z,6.50
2022-11-06T17:04:13.846Z,6.60
2022-11-06T17:09:31.082Z,6.30
2022-11-06T17:14:44.439Z,6.20
2022-11-06T17:20:00.720Z,6.20
2022-11-06T17:25:14.871Z,6.00
2022-11-06T17:30:25.669Z,6.00
2022-11-06T17:35:45.264Z,6.10
2022-11-06T17:41:01.599Z,6.10
2022-11-06T17:46:20.661Z,6.20
2022-11-06T17:51:56.181Z,6.30
2022-11-06T17:57:11.533Z,6.50
2022-11-06T18:02:55.332Z,6.20
2022-11-06T18:07:49.688Z,6.10
2022-11-06T18:13:06.736Z,5.80
2022-11-06T18:18:26.320Z,5.60
2022-11-06T18:23:49.499Z,5.80
2022-11-06T18:29:06.761Z,5.60
2022-11-06T18:34:24.899Z,5.80
2022-11-06T18:39:45.206Z,5.70
2022-11-06T18:45:05.310Z,5.60
2022-11-06T18:50:19.147Z,5.60
2022-11-06T18:55:35.892Z,5.60
2022-11-06T19:01:01.430Z,5.50
2022-11-06T19:06:15.402Z,5.50
2022-11-06T19:11:34.690Z,5.40
2022-11-06T19:16:54.800Z,5.40
2022-11-06T19:22:12.132Z,5.30
2022-11-06T19:27:30.190Z,5.10
2022-11-06T19:32:50.487Z,5.20
2022-11-06T19:38:05.879Z,5.10
2022-11-06T19:43:27.131Z,5.20
2022-11-06T19:48:46.351Z,5.10
2022-11-06T19:54:05.353Z,4.90
2022-11-06T19:59:20.681Z,5.00
2022-11-06T20:04:40.035Z,5.00
2022-11-06T20:09:59.780Z,5.00
2022-11-06T20:15:12.495Z,5.00
2022-11-06T20:20:28.696Z,5.00
2022-11-06T20:25:49.008Z,5.00
2022-11-06T20:31:06.233Z,5.00
2022-11-06T20:36:27.331Z,5.10
2022-11-06T20:41:48.625Z,4.80
2022-11-06T20:47:05.632Z,4.90
2022-11-06T20:52:23.922Z,5.10
2022-11-06T20:57:44.332Z,4.90
2022-11-06T21:03:02.231Z,5.00
2022-11-06T21:08:20.702Z,5.00
2022-11-06T21:13:39.008Z,5.00
2022-11-06T21:18:57.556Z,4.80
2022-11-06T21:24:11.666Z,4.80
2022-11-06T21:29:21.165Z,4.80
2022-11-06T21:34:29.755Z,4.80
2022-11-06T21:39:37.442Z,4.80
2022-11-06T21:44:44.870Z,4.80
2022-11-06T21:49:58.158Z,4.80
2022-11-06T21:55:22.342Z,4.60
2022-11-06T22:00:30.423Z,4.70
2022-11-06T22:05:37.261Z,4.80
2022-11-06T22:10:44.848Z,4.70
2022-11-06T22:15:51.528Z,4.70
2022-11-06T22:21:11.212Z,4.60
2022-11-06T22:26:25.986Z,4.80
2022-11-06T22:31:33.431Z,4.50
2022-11-06T22:36:41.588Z,4.60
2022-11-06T22:41:49.873Z,4.80
2022-11-06T22:46:59.571Z,5.00
2022-11-06T22:52:06.696Z,5.10
2022-11-06T22:57:14.040Z,5.10
2022-11-06T23:02:21.594Z,4.80
2022-11-06T23:07:30.053Z,4.80
2022-11-06T23:12:37.155Z,4.80
2022-11-06T23:17:44.925Z,4.80
2022-11-06T23:22:54.278Z,4.90
2022-11-06T23:28:03.737Z,4.90
2022-11-06T23:33:11.406Z,4.90
2022-11-06T23:38:19.222Z,5.10
2022-11-06T23:43:27.082Z,5.20
2022-11-06T23:48:35.953Z,5.20
2022-11-06T23:53:44.113Z,5.20
2022-11-06T23:58:51.832Z,5.20
